sensor_id;sensor_type;location;lat;lon;timestamp;temperature;humidity
75648;DHT22;64238;51.466;7.260;2022-11-20T00:00:47;22.70;34.30
75648;DHT22;64238;51.466;7.260;2022-11-20T00:03:13;22.70;34.30
75648;DHT22;64238;51.466;7.260;2022-11-20T00:05:38;22.70;34.10
75648;DHT22;64238;51.466;7.260;2022-11-20T00:08:04;22.70;34.40
75648;DHT22;64238;51.466;7.260;2022-11-20T00:10:30;22.70;34.30
75648;DHT22;64238;51.466;7.260;2022-11-20T00:12:58;22.60;34.30
75648;DHT22;64238;51.466;7.260;2022-11-20T00:15:24;22.60;34.20
75648;DHT22;64238;51.466;7.260;2022-11-20T00:17:49;22.70;34.20
75648;DHT22;64238;51.466;7.260;2022-11-20T00:20:15;22.70;34.30
75648;DHT22;64238;51.466;7.260;2022-11-20T00:22:40;22.60;34.10
75648;DHT22;64238;51.466;7.260;2022-11-20T00:25:06;22.70;34.50
75648;DHT22;64238;51.466;7.260;2022-11-20T00:27:32;22.60;34.20
75648;DHT22;64238;51.466;7.260;2022-11-20T00:29:57;22.60;34.30
75648;DHT22;64238;51.466;7.260;2022-11-20T00:32:23;22.70;34.40
75648;DHT22;64238;51.466;7.260;2022-11-20T00:34:48;22.60;34.30
75648;DHT22;64238;51.466;7.260;2022-11-20T00:37:14;22.60;34.50
75648;DHT22;64238;51.466;7.260;2022-11-20T00:39:40;22.70;34.30
75648;DHT22;64238;51.466;7.260;2022-11-20T00:42:05;22.60;34.30
75648;DHT22;64238;51.466;7.260;2022-11-20T00:44:31;22.70;34.30
75648;DHT22;64238;51.466;7.260;2022-11-20T00:46:56;22.70;34.40
75648;DHT22;64238;51.466;7.260;2022-11-20T00:49:22;22.70;34.30
75648;DHT22;64238;51.466;7.260;2022-11-20T00:51:47;22.70;34.20
75648;DHT22;64238;51.466;7.260;2022-11-20T00:54:13;22.80;34.40
75648;DHT22;64238;51.466;7.260;2022-11-20T00:56:38;22.80;34.40
75648;DHT22;64238;51.466;7.260;2022-11-20T00:59:05;22.70;34.00
75648;DHT22;64238;51.466;7.260;2022-11-20T01:01:30;22.70;34.20
75648;DHT22;64238;51.466;7.260;2022-11-20T01:03:59;22.70;34.20
75648;DHT22;64238;51.466;7.260;2022-11-20T01:06:27;22.70;34.20
75648;DHT22;64238;51.466;7.260;2022-11-20T01:08:56;22.70;34.40
75648;DHT22;64238;51.466;7.260;2022-11-20T01:11:24;22.70;34.10
75648;DHT22;64238;51.466;7.260;2022-11-20T01:13:52;22.70;34.40
75648;DHT22;64238;51.466;7.260;2022-11-20T01:16:28;22.80;34.50
75648;DHT22;64238;51.466;7.260;2022-11-20T01:18:57;22.70;34.40
75648;DHT22;64238;51.466;7.260;2022-11-20T01:21:25;22.80;34.30
75648;DHT22;64238;51.466;7.260;2022-11-20T01:23:52;22.80;34.10
75648;DHT22;64238;51.466;7.260;2022-11-20T01:26:20;22.80;34.30
75648;DHT22;64238;51.466;7.260;2022-11-20T01:28:47;22.70;34.30
75648;DHT22;64238;51.466;7.260;2022-11-20T01:31:16;22.80;34.40
75648;DHT22;64238;51.466;7.260;2022-11-20T01:33:43;22.70;34.10
75648;DHT22;64238;51.466;7.260;2022-11-20T01:36:10;22.80;34.30
75648;DHT22;64238;51.466;7.260;2022-11-20T01:38:36;22.80;34.10
75648;DHT22;64238;51.466;7.260;2022-11-20T01:41:02;22.70;34.50
75648;DHT22;64238;51.466;7.260;2022-11-20T01:43:28;22.80;34.40
75648;DHT22;64238;51.466;7.260;2022-11-20T01:46:04;22.70;34.20
75648;DHT22;64238;51.466;7.260;2022-11-20T01:48:40;22.70;34.30
75648;DHT22;64238;51.466;7.260;2022-11-20T01:51:15;22.70;34.30
75648;DHT22;64238;51.466;7.260;2022-11-20T01:53:42;22.80;34.20
75648;DHT22;64238;51.466;7.260;2022-11-20T01:56:10;22.80;34.30
75648;DHT22;64238;51.466;7.260;2022-11-20T01:58:42;22.80;34.10
75648;DHT22;64238;51.466;7.260;2022-11-20T02:01:09;22.80;34.40
75648;DHT22;64238;51.466;7.260;2022-11-20T02:03:35;22.70;34.20
75648;DHT22;64238;51.466;7.260;2022-11-20T02:06:12;22.70;34.30
75648;DHT22;64238;51.466;7.260;2022-11-20T02:08:39;22.70;34.10
75648;DHT22;64238;51.466;7.260;2022-11-20T02:11:05;22.70;34.40
75648;DHT22;64238;51.466;7.260;2022-11-20T02:13:31;22.70;34.50
75648;DHT22;64238;51.466;7.260;2022-11-20T02:18:40;22.70;34.30
75648;DHT22;64238;51.466;7.260;2022-11-20T02:21:13;22.70;34.30
75648;DHT22;64238;51.466;7.260;2022-11-20T02:24:01;22.70;34.20
75648;DHT22;64238;51.466;7.260;2022-11-20T02:26:29;22.70;34.20
75648;DHT22;64238;51.466;7.260;2022-11-20T02:28:55;22.70;34.20
75648;DHT22;64238;51.466;7.260;2022-11-20T02:31:21;22.70;34.40
75648;DHT22;64238;51.466;7.260;2022-11-20T02:33:47;22.80;34.50
75648;DHT22;64238;51.466;7.260;2022-11-20T02:36:15;22.70;34.60
75648;DHT22;64238;51.466;7.260;2022-11-20T02:38:42;22.70;34.10
75648;DHT22;64238;51.466;7.260;2022-11-20T02:41:08;22.60;34.50
75648;DHT22;64238;51.466;7.260;2022-11-20T02:43:34;22.80;34.30
75648;DHT22;64238;51.466;7.260;2022-11-20T02:45:59;22.70;34.40
75648;DHT22;64238;51.466;7.260;2022-11-20T02:48:25;22.70;34.50
75648;DHT22;64238;51.466;7.260;2022-11-20T02:50:50;22.70;34.50
75648;DHT22;64238;51.466;7.260;2022-11-20T02:53:16;22.80;34.50
75648;DHT22;64238;51.466;7.260;2022-11-20T02:55:41;22.80;34.40
75648;DHT22;64238;51.466;7.260;2022-11-20T02:58:07;22.80;34.40
75648;DHT22;64238;51.466;7.260;2022-11-20T03:00:32;22.70;34.60
75648;DHT22;64238;51.466;7.260;2022-11-20T03:02:58;22.70;34.50
75648;DHT22;64238;51.466;7.260;2022-11-20T03:05:24;22.80;34.50
75648;DHT22;64238;51.466;7.260;2022-11-20T03:07:49;22.80;34.50
75648;DHT22;64238;51.466;7.260;2022-11-20T03:10:15;22.70;34.50
75648;DHT22;64238;51.466;7.260;2022-11-20T03:12:41;22.70;34.50
75648;DHT22;64238;51.466;7.260;2022-11-20T03:15:07;22.70;34.60
75648;DHT22;64238;51.466;7.260;2022-11-20T03:17:32;22.70;34.60
75648;DHT22;64238;51.466;7.260;2022-11-20T03:19:58;22.70;34.60
75648;DHT22;64238;51.466;7.260;2022-11-20T03:22:23;22.80;34.30
75648;DHT22;64238;51.466;7.260;2022-11-20T03:24:49;22.70;34.70
75648;DHT22;64238;51.466;7.260;2022-11-20T03:27:14;22.80;34.50
75648;DHT22;64238;51.466;7.260;2022-11-20T03:29:40;22.80;34.50
75648;DHT22;64238;51.466;7.260;2022-11-20T03:32:05;22.70;34.50
75648;DHT22;64238;51.466;7.260;2022-11-20T03:34:31;22.70;34.30
75648;DHT22;64238;51.466;7.260;2022-11-20T03:36:56;22.80;34.30
75648;DHT22;64238;51.466;7.260;2022-11-20T03:39:22;22.80;34.70
75648;DHT22;64238;51.466;7.260;2022-11-20T03:41:47;22.80;34.90
75648;DHT22;64238;51.466;7.260;2022-11-20T03:44:13;22.80;34.40
75648;DHT22;64238;51.466;7.260;2022-11-20T03:46:39;22.80;34.80
75648;DHT22;64238;51.466;7.260;2022-11-20T03:49:04;22.80;34.60
75648;DHT22;64238;51.466;7.260;2022-11-20T03:51:32;22.80;34.60
75648;DHT22;64238;51.466;7.260;2022-11-20T03:54:00;22.80;34.70
75648;DHT22;64238;51.466;7.260;2022-11-20T03:56:29;22.70;34.40
75648;DHT22;64238;51.466;7.260;2022-11-20T03:58:55;22.80;34.70
75648;DHT22;64238;51.466;7.260;2022-11-20T04:01:24;22.70;34.60
75648;DHT22;64238;51.466;7.260;2022-11-20T04:03:52;22.80;34.60
75648;DHT22;64238;51.466;7.260;2022-11-20T04:06:20;22.80;34.50
75648;DHT22;64238;51.466;7.260;2022-11-20T04:08:46;22.80;34.80
75648;DHT22;64238;51.466;7.260;2022-11-20T04:13:51;22.80;34.70
75648;DHT22;64238;51.466;7.260;2022-11-20T04:16:17;22.80;34.80
75648;DHT22;64238;51.466;7.260;2022-11-20T04:18:44;22.80;34.80
75648;DHT22;64238;51.466;7.260;2022-11-20T04:21:10;22.80;34.80
75648;DHT22;64238;51.466;7.260;2022-11-20T04:23:36;22.80;34.70
75648;DHT22;64238;51.466;7.260;2022-11-20T04:26:10;22.80;34.60
75648;DHT22;64238;51.466;7.260;2022-11-20T04:28:36;22.80;34.80
75648;DHT22;64238;51.466;7.260;2022-11-20T04:31:10;22.80;34.80
75648;DHT22;64238;51.466;7.260;2022-11-20T04:33:36;22.80;34.80
75648;DHT22;64238;51.466;7.260;2022-11-20T04:36:24;22.80;34.80
75648;DHT22;64238;51.466;7.260;2022-11-20T04:38:54;22.80;34.80
75648;DHT22;64238;51.466;7.260;2022-11-20T04:41:22;22.80;35.00
75648;DHT22;64238;51.466;7.260;2022-11-20T04:43:49;22.80;34.90
75648;DHT22;64238;51.466;7.260;2022-11-20T04:46:16;22.80;35.00
75648;DHT22;64238;51.466;7.260;2022-11-20T04:48:42;22.80;34.80
75648;DHT22;64238;51.466;7.260;2022-11-20T04:51:08;22.90;34.80
75648;DHT22;64238;51.466;7.260;2022-11-20T04:53:33;22.90;35.00
75648;DHT22;64238;51.466;7.260;2022-11-20T04:56:04;22.90;34.80
75648;DHT22;64238;51.466;7.260;2022-11-20T04:58:30;22.80;34.90
75648;DHT22;64238;51.466;7.260;2022-11-20T05:01:07;22.80;35.00
75648;DHT22;64238;51.466;7.260;2022-11-20T05:03:32;22.80;35.00
75648;DHT22;64238;51.466;7.260;2022-11-20T05:06:02;22.80;34.80
75648;DHT22;64238;51.466;7.260;2022-11-20T05:08:29;22.90;34.90
75648;DHT22;64238;51.466;7.260;2022-11-20T05:11:02;22.70;35.00
75648;DHT22;64238;51.466;7.260;2022-11-20T05:13:28;22.80;35.00
75648;DHT22;64238;51.466;7.260;2022-11-20T05:15:54;22.80;34.60
75648;DHT22;64238;51.466;7.260;2022-11-20T05:18:19;22.80;35.10
75648;DHT22;64238;51.466;7.260;2022-11-20T05:20:45;22.80;35.00
75648;DHT22;64238;51.466;7.260;2022-11-20T05:23:11;22.80;35.00
75648;DHT22;64238;51.466;7.260;2022-11-20T05:25:36;22.90;34.90
75648;DHT22;64238;51.466;7.260;2022-11-20T05:28:02;22.80;35.10
75648;DHT22;64238;51.466;7.260;2022-11-20T05:30:27;22.80;34.90
75648;DHT22;64238;51.466;7.260;2022-11-20T05:32:53;22.80;35.00
75648;DHT22;64238;51.466;7.260;2022-11-20T05:35:18;22.80;35.20
75648;DHT22;64238;51.466;7.260;2022-11-20T05:37:44;22.80;35.00
75648;DHT22;64238;51.466;7.260;2022-11-20T05:40:10;22.80;35.00
75648;DHT22;64238;51.466;7.260;2022-11-20T05:42:36;22.80;35.10
75648;DHT22;64238;51.466;7.260;2022-11-20T05:45:04;22.80;35.10
75648;DHT22;64238;51.466;7.260;2022-11-20T05:47:33;22.90;35.10
75648;DHT22;64238;51.466;7.260;2022-11-20T05:50:00;22.70;35.20
75648;DHT22;64238;51.466;7.260;2022-11-20T05:52:28;22.80;35.20
75648;DHT22;64238;51.466;7.260;2022-11-20T05:54:54;22.80;35.20
75648;DHT22;64238;51.466;7.260;2022-11-20T05:57:20;22.90;35.00
75648;DHT22;64238;51.466;7.260;2022-11-20T05:59:45;22.80;35.20
75648;DHT22;64238;51.466;7.260;2022-11-20T06:02:11;22.80;35.20
75648;DHT22;64238;51.466;7.260;2022-11-20T06:04:36;22.90;35.40
75648;DHT22;64238;51.466;7.260;2022-11-20T06:07:02;22.80;35.10
75648;DHT22;64238;51.466;7.260;2022-11-20T06:09:28;22.90;35.40
75648;DHT22;64238;51.466;7.260;2022-11-20T06:11:53;22.80;35.40
75648;DHT22;64238;51.466;7.260;2022-11-20T06:14:19;22.80;35.10
75648;DHT22;64238;51.466;7.260;2022-11-20T06:16:44;22.80;35.30
75648;DHT22;64238;51.466;7.260;2022-11-20T06:19:10;22.80;35.20
75648;DHT22;64238;51.466;7.260;2022-11-20T06:21:35;22.80;35.10
75648;DHT22;64238;51.466;7.260;2022-11-20T06:24:01;22.80;35.10
75648;DHT22;64238;51.466;7.260;2022-11-20T06:26:27;22.80;35.20
75648;DHT22;64238;51.466;7.260;2022-11-20T06:28:53;22.80;35.10
75648;DHT22;64238;51.466;7.260;2022-11-20T06:31:21;22.70;35.10
75648;DHT22;64238;51.466;7.260;2022-11-20T06:33:47;22.80;35.40
75648;DHT22;64238;51.466;7.260;2022-11-20T06:36:15;22.70;35.50
75648;DHT22;64238;51.466;7.260;2022-11-20T06:38:41;22.80;35.20
75648;DHT22;64238;51.466;7.260;2022-11-20T06:41:10;22.70;35.60
75648;DHT22;64238;51.466;7.260;2022-11-20T06:43:35;22.80;35.30
75648;DHT22;64238;51.466;7.260;2022-11-20T06:46:01;22.80;35.40
75648;DHT22;64238;51.466;7.260;2022-11-20T06:48:28;22.80;35.30
75648;DHT22;64238;51.466;7.260;2022-11-20T06:50:54;22.70;35.30
75648;DHT22;64238;51.466;7.260;2022-11-20T06:53:19;22.80;35.40
75648;DHT22;64238;51.466;7.260;2022-11-20T06:55:46;22.80;35.50
75648;DHT22;64238;51.466;7.260;2022-11-20T06:58:13;22.80;35.40
75648;DHT22;64238;51.466;7.260;2022-11-20T07:00:39;22.90;35.30
75648;DHT22;64238;51.466;7.260;2022-11-20T07:03:06;22.80;35.60
75648;DHT22;64238;51.466;7.260;2022-11-20T07:05:32;22.80;35.40
75648;DHT22;64238;51.466;7.260;2022-11-20T07:07:58;22.80;35.50
75648;DHT22;64238;51.466;7.260;2022-11-20T07:10:24;22.80;35.50
75648;DHT22;64238;51.466;7.260;2022-11-20T07:12:53;22.80;35.40
75648;DHT22;64238;51.466;7.260;2022-11-20T07:15:21;22.80;35.40
75648;DHT22;64238;51.466;7.260;2022-11-20T07:17:47;22.80;35.40
75648;DHT22;64238;51.466;7.260;2022-11-20T07:20:13;22.80;35.40
75648;DHT22;64238;51.466;7.260;2022-11-20T07:22:39;22.80;35.60
75648;DHT22;64238;51.466;7.260;2022-11-20T07:25:05;22.90;35.70
75648;DHT22;64238;51.466;7.260;2022-11-20T07:27:30;22.90;35.60
75648;DHT22;64238;51.466;7.260;2022-11-20T07:29:56;22.90;35.70
75648;DHT22;64238;51.466;7.260;2022-11-20T07:32:22;22.90;35.60
75648;DHT22;64238;51.466;7.260;2022-11-20T07:34:48;22.90;35.80
75648;DHT22;64238;51.466;7.260;2022-11-20T07:37:14;22.90;35.50
75648;DHT22;64238;51.466;7.260;2022-11-20T07:39:40;22.90;35.60
75648;DHT22;64238;51.466;7.260;2022-11-20T07:42:06;22.90;35.60
75648;DHT22;64238;51.466;7.260;2022-11-20T07:44:32;22.90;35.60
75648;DHT22;64238;51.466;7.260;2022-11-20T07:46:58;23.00;35.80
75648;DHT22;64238;51.466;7.260;2022-11-20T07:49:23;22.90;35.60
75648;DHT22;64238;51.466;7.260;2022-11-20T07:51:52;22.80;35.40
75648;DHT22;64238;51.466;7.260;2022-11-20T07:54:19;22.90;35.60
75648;DHT22;64238;51.466;7.260;2022-11-20T07:56:45;22.90;35.70
75648;DHT22;64238;51.466;7.260;2022-11-20T07:59:11;22.90;35.50
75648;DHT22;64238;51.466;7.260;2022-11-20T08:01:40;22.90;35.60
75648;DHT22;64238;51.466;7.260;2022-11-20T08:04:06;22.90;35.60
75648;DHT22;64238;51.466;7.260;2022-11-20T08:06:31;22.90;35.60
75648;DHT22;64238;51.466;7.260;2022-11-20T08:08:57;22.90;35.60
75648;DHT22;64238;51.466;7.260;2022-11-20T08:11:23;23.00;35.80
75648;DHT22;64238;51.466;7.260;2022-11-20T08:14:07;22.90;36.00
75648;DHT22;64238;51.466;7.260;2022-11-20T08:16:43;23.00;35.80
75648;DHT22;64238;51.466;7.260;2022-11-20T08:19:10;23.00;35.60
75648;DHT22;64238;51.466;7.260;2022-11-20T08:21:36;22.90;35.70
75648;DHT22;64238;51.466;7.260;2022-11-20T08:24:02;23.00;35.70
75648;DHT22;64238;51.466;7.260;2022-11-20T08:26:27;23.00;35.70
75648;DHT22;64238;51.466;7.260;2022-11-20T08:28:54;23.00;35.90
75648;DHT22;64238;51.466;7.260;2022-11-20T08:31:20;23.00;35.80
75648;DHT22;64238;51.466;7.260;2022-11-20T08:33:46;23.10;35.70
75648;DHT22;64238;51.466;7.260;2022-11-20T08:36:11;23.10;35.90
75648;DHT22;64238;51.466;7.260;2022-11-20T08:38:37;23.00;35.70
75648;DHT22;64238;51.466;7.260;2022-11-20T08:41:04;23.10;35.60
75648;DHT22;64238;51.466;7.260;2022-11-20T08:43:48;23.10;35.80
75648;DHT22;64238;51.466;7.260;2022-11-20T08:46:14;23.00;35.60
75648;DHT22;64238;51.466;7.260;2022-11-20T08:48:39;23.20;35.60
75648;DHT22;64238;51.466;7.260;2022-11-20T08:51:05;23.20;35.80
75648;DHT22;64238;51.466;7.260;2022-11-20T08:53:30;23.20;35.90
75648;DHT22;64238;51.466;7.260;2022-11-20T08:55:59;23.20;35.80
75648;DHT22;64238;51.466;7.260;2022-11-20T08:58:25;23.10;35.80
75648;DHT22;64238;51.466;7.260;2022-11-20T09:00:50;23.20;35.70
75648;DHT22;64238;51.466;7.260;2022-11-20T09:03:16;23.20;35.70
75648;DHT22;64238;51.466;7.260;2022-11-20T09:05:41;23.20;35.70
75648;DHT22;64238;51.466;7.260;2022-11-20T09:08:08;23.20;35.90
75648;DHT22;64238;51.466;7.260;2022-11-20T09:10:33;23.30;35.80
75648;DHT22;64238;51.466;7.260;2022-11-20T09:12:59;23.20;35.60
75648;DHT22;64238;51.466;7.260;2022-11-20T09:15:25;23.20;35.70
75648;DHT22;64238;51.466;7.260;2022-11-20T09:20:17;23.30;35.70
75648;DHT22;64238;51.466;7.260;2022-11-20T09:22:43;23.30;35.70
75648;DHT22;64238;51.466;7.260;2022-11-20T09:25:08;23.30;35.80
75648;DHT22;64238;51.466;7.260;2022-11-20T09:27:34;23.30;35.60
75648;DHT22;64238;51.466;7.260;2022-11-20T09:30:01;23.40;35.70
75648;DHT22;64238;51.466;7.260;2022-11-20T09:32:26;23.40;35.60
75648;DHT22;64238;51.466;7.260;2022-11-20T09:34:52;23.40;35.70
75648;DHT22;64238;51.466;7.260;2022-11-20T09:37:17;23.40;35.70
75648;DHT22;64238;51.466;7.260;2022-11-20T09:39:43;23.50;35.60
75648;DHT22;64238;51.466;7.260;2022-11-20T09:50:31;23.50;35.80
75648;DHT22;64238;51.466;7.260;2022-11-20T09:55:49;23.60;35.60
75648;DHT22;64238;51.466;7.260;2022-11-20T09:58:31;23.50;35.40
75648;DHT22;64238;51.466;7.260;2022-11-20T10:01:09;23.60;35.50
75648;DHT22;64238;51.466;7.260;2022-11-20T10:03:41;23.50;35.70
75648;DHT22;64238;51.466;7.260;2022-11-20T10:06:12;23.60;34.80
75648;DHT22;64238;51.466;7.260;2022-11-20T10:08:53;23.70;35.00
75648;DHT22;64238;51.466;7.260;2022-11-20T10:14:26;23.60;34.80
75648;DHT22;64238;51.466;7.260;2022-11-20T10:27:23;23.70;34.70
75648;DHT22;64238;51.466;7.260;2022-11-20T10:30:03;23.70;34.80
75648;DHT22;64238;51.466;7.260;2022-11-20T10:32:39;23.70;34.90
75648;DHT22;64238;51.466;7.260;2022-11-20T10:35:25;23.80;34.70
75648;DHT22;64238;51.466;7.260;2022-11-20T10:38:03;23.80;34.80
75648;DHT22;64238;51.466;7.260;2022-11-20T10:40:38;23.90;34.90
75648;DHT22;64238;51.466;7.260;2022-11-20T10:43:13;23.90;34.80
75648;DHT22;64238;51.466;7.260;2022-11-20T10:48:15;24.00;34.70
75648;DHT22;64238;51.466;7.260;2022-11-20T10:50:52;24.10;34.90
75648;DHT22;64238;51.466;7.260;2022-11-20T10:59:11;24.00;34.70
75648;DHT22;64238;51.466;7.260;2022-11-20T11:01:41;24.00;35.00
75648;DHT22;64238;51.466;7.260;2022-11-20T11:04:23;24.00;34.70
75648;DHT22;64238;51.466;7.260;2022-11-20T11:09:39;24.00;34.80
75648;DHT22;64238;51.466;7.260;2022-11-20T11:12:08;23.90;34.70
75648;DHT22;64238;51.466;7.260;2022-11-20T11:14:49;24.00;34.80
75648;DHT22;64238;51.466;7.260;2022-11-20T11:19:45;23.90;34.80
75648;DHT22;64238;51.466;7.260;2022-11-20T11:22:21;23.90;34.80
75648;DHT22;64238;51.466;7.260;2022-11-20T11:24:54;23.90;34.80
75648;DHT22;64238;51.466;7.260;2022-11-20T11:27:20;24.00;34.80
75648;DHT22;64238;51.466;7.260;2022-11-20T11:29:46;24.00;34.50
75648;DHT22;64238;51.466;7.260;2022-11-20T11:32:12;24.00;34.70
75648;DHT22;64238;51.466;7.260;2022-11-20T11:34:38;24.00;34.80
75648;DHT22;64238;51.466;7.260;2022-11-20T11:37:04;24.00;34.70
75648;DHT22;64238;51.466;7.260;2022-11-20T11:39:32;24.00;35.00
75648;DHT22;64238;51.466;7.260;2022-11-20T11:42:00;23.90;34.80
75648;DHT22;64238;51.466;7.260;2022-11-20T11:44:32;23.90;34.70
75648;DHT22;64238;51.466;7.260;2022-11-20T11:47:24;24.00;34.90
75648;DHT22;64238;51.466;7.260;2022-11-20T11:50:20;24.00;34.80
75648;DHT22;64238;51.466;7.260;2022-11-20T11:53:11;24.10;34.90
75648;DHT22;64238;51.466;7.260;2022-11-20T11:58:39;24.10;34.70
75648;DHT22;64238;51.466;7.260;2022-11-20T12:06:39;24.20;34.60
75648;DHT22;64238;51.466;7.260;2022-11-20T12:09:11;24.20;34.80
75648;DHT22;64238;51.466;7.260;2022-11-20T12:11:43;24.20;34.70
75648;DHT22;64238;51.466;7.260;2022-11-20T12:16:49;24.20;34.70
75648;DHT22;64238;51.466;7.260;2022-11-20T12:19:15;24.20;34.80
75648;DHT22;64238;51.466;7.260;2022-11-20T12:24:37;24.00;34.80
75648;DHT22;64238;51.466;7.260;2022-11-20T12:29:54;24.00;35.00
75648;DHT22;64238;51.466;7.260;2022-11-20T12:42:57;23.80;35.20
75648;DHT22;64238;51.466;7.260;2022-11-20T12:51:31;23.80;35.10
75648;DHT22;64238;51.466;7.260;2022-11-20T12:57:40;23.70;35.10
75648;DHT22;64238;51.466;7.260;2022-11-20T13:00:20;23.70;35.20
75648;DHT22;64238;51.466;7.260;2022-11-20T13:05:59;23.70;35.20
75648;DHT22;64238;51.466;7.260;2022-11-20T13:08:36;23.60;35.00
75648;DHT22;64238;51.466;7.260;2022-11-20T13:11:14;23.70;35.00
75648;DHT22;64238;51.466;7.260;2022-11-20T13:19:05;23.70;35.10
75648;DHT22;64238;51.466;7.260;2022-11-20T13:24:25;23.50;35.90
75648;DHT22;64238;51.466;7.260;2022-11-20T13:29:44;23.60;36.00
75648;DHT22;64238;51.466;7.260;2022-11-20T13:34:39;23.60;36.00
75648;DHT22;64238;51.466;7.260;2022-11-20T13:37:05;23.60;35.90
75648;DHT22;64238;51.466;7.260;2022-11-20T13:39:34;23.60;36.20
75648;DHT22;64238;51.466;7.260;2022-11-20T13:44:42;23.50;36.10
75648;DHT22;64238;51.466;7.260;2022-11-20T13:49:46;23.50;35.90
75648;DHT22;64238;51.466;7.260;2022-11-20T13:52:37;23.50;36.10
75648;DHT22;64238;51.466;7.260;2022-11-20T13:58:01;23.50;36.00
75648;DHT22;64238;51.466;7.260;2022-11-20T14:00:30;23.50;36.00
75648;DHT22;64238;51.466;7.260;2022-11-20T14:03:08;23.50;35.70
75648;DHT22;64238;51.466;7.260;2022-11-20T14:05:37;23.50;35.60
75648;DHT22;64238;51.466;7.260;2022-11-20T14:08:05;23.40;36.00
75648;DHT22;64238;51.466;7.260;2022-11-20T14:10:31;23.50;36.20
75648;DHT22;64238;51.466;7.260;2022-11-20T14:12:57;23.60;35.80
75648;DHT22;64238;51.466;7.260;2022-11-20T14:15:32;23.60;35.90
75648;DHT22;64238;51.466;7.260;2022-11-20T14:17:59;23.60;36.10
75648;DHT22;64238;51.466;7.260;2022-11-20T14:20:28;23.50;36.10
75648;DHT22;64238;51.466;7.260;2022-11-20T14:22:55;23.40;36.10
75648;DHT22;64238;51.466;7.260;2022-11-20T14:25:22;23.50;35.80
75648;DHT22;64238;51.466;7.260;2022-11-20T14:27:55;23.50;36.00
75648;DHT22;64238;51.466;7.260;2022-11-20T14:30:23;23.50;35.80
75648;DHT22;64238;51.466;7.260;2022-11-20T14:32:51;23.50;36.20
75648;DHT22;64238;51.466;7.260;2022-11-20T14:35:26;23.50;36.20
75648;DHT22;64238;51.466;7.260;2022-11-20T14:37:52;23.50;36.00
75648;DHT22;64238;51.466;7.260;2022-11-20T14:42:55;23.40;36.20
75648;DHT22;64238;51.466;7.260;2022-11-20T14:45:22;23.40;36.10
75648;DHT22;64238;51.466;7.260;2022-11-20T14:47:48;23.50;36.00
75648;DHT22;64238;51.466;7.260;2022-11-20T14:50:28;23.50;36.00
75648;DHT22;64238;51.466;7.260;2022-11-20T14:53:00;23.40;36.00
75648;DHT22;64238;51.466;7.260;2022-11-20T14:55:37;23.40;35.70
75648;DHT22;64238;51.466;7.260;2022-11-20T14:58:06;23.40;36.00
75648;DHT22;64238;51.466;7.260;2022-11-20T15:00:33;23.40;36.10
75648;DHT22;64238;51.466;7.260;2022-11-20T15:02:59;23.30;36.20
75648;DHT22;64238;51.466;7.260;2022-11-20T15:05:45;23.40;36.10
75648;DHT22;64238;51.466;7.260;2022-11-20T15:08:12;23.40;36.20
75648;DHT22;64238;51.466;7.260;2022-11-20T15:10:38;23.30;36.00
75648;DHT22;64238;51.466;7.260;2022-11-20T15:13:16;23.40;36.10
75648;DHT22;64238;51.466;7.260;2022-11-20T15:15:47;23.40;36.40
75648;DHT22;64238;51.466;7.260;2022-11-20T15:18:18;23.40;35.90
75648;DHT22;64238;51.466;7.260;2022-11-20T15:20:44;23.30;36.30
75648;DHT22;64238;51.466;7.260;2022-11-20T15:23:12;23.30;36.00
75648;DHT22;64238;51.466;7.260;2022-11-20T15:25:39;23.40;36.30
75648;DHT22;64238;51.466;7.260;2022-11-20T15:28:19;23.40;36.20
75648;DHT22;64238;51.466;7.260;2022-11-20T15:30:47;23.30;36.40
75648;DHT22;64238;51.466;7.260;2022-11-20T15:33:14;23.40;36.30
75648;DHT22;64238;51.466;7.260;2022-11-20T15:35:39;23.30;36.50
75648;DHT22;64238;51.466;7.260;2022-11-20T15:38:06;23.30;36.10
75648;DHT22;64238;51.466;7.260;2022-11-20T15:40:31;23.30;36.00
75648;DHT22;64238;51.466;7.260;2022-11-20T15:42:57;23.20;36.30
75648;DHT22;64238;51.466;7.260;2022-11-20T15:48:31;23.30;36.30
75648;DHT22;64238;51.466;7.260;2022-11-20T15:53:35;23.30;36.20
75648;DHT22;64238;51.466;7.260;2022-11-20T15:56:01;23.20;36.30
75648;DHT22;64238;51.466;7.260;2022-11-20T15:58:27;23.20;36.30
75648;DHT22;64238;51.466;7.260;2022-11-20T16:00:52;23.30;36.30
75648;DHT22;64238;51.466;7.260;2022-11-20T16:03:19;23.30;36.20
75648;DHT22;64238;51.466;7.260;2022-11-20T16:05:45;23.30;36.40
75648;DHT22;64238;51.466;7.260;2022-11-20T16:08:10;23.20;36.30
75648;DHT22;64238;51.466;7.260;2022-11-20T16:10:36;23.20;36.20
75648;DHT22;64238;51.466;7.260;2022-11-20T16:13:03;23.30;36.20
75648;DHT22;64238;51.466;7.260;2022-11-20T16:15:52;23.20;36.30
75648;DHT22;64238;51.466;7.260;2022-11-20T16:18:21;23.20;36.40
75648;DHT22;64238;51.466;7.260;2022-11-20T16:20:48;23.20;36.50
75648;DHT22;64238;51.466;7.260;2022-11-20T16:23:14;23.20;36.50
75648;DHT22;64238;51.466;7.260;2022-11-20T16:25:41;23.20;36.50
75648;DHT22;64238;51.466;7.260;2022-11-20T16:28:07;23.20;36.40
75648;DHT22;64238;51.466;7.260;2022-11-20T16:30:33;23.20;36.80
75648;DHT22;64238;51.466;7.260;2022-11-20T16:33:00;23.20;36.70
75648;DHT22;64238;51.466;7.260;2022-11-20T16:35:30;23.20;36.50
75648;DHT22;64238;51.466;7.260;2022-11-20T16:37:57;23.20;36.60
75648;DHT22;64238;51.466;7.260;2022-11-20T16:40:23;23.20;36.60
75648;DHT22;64238;51.466;7.260;2022-11-20T16:42:49;23.20;36.70
75648;DHT22;64238;51.466;7.260;2022-11-20T16:45:16;23.20;36.40
75648;DHT22;64238;51.466;7.260;2022-11-20T16:47:41;23.20;36.60
75648;DHT22;64238;51.466;7.260;2022-11-20T16:50:08;23.20;36.60
75648;DHT22;64238;51.466;7.260;2022-11-20T16:52:33;23.20;36.60
75648;DHT22;64238;51.466;7.260;2022-11-20T16:54:59;23.20;36.60
75648;DHT22;64238;51.466;7.260;2022-11-20T16:57:27;23.20;36.70
75648;DHT22;64238;51.466;7.260;2022-11-20T16:59:53;23.20;36.80
75648;DHT22;64238;51.466;7.260;2022-11-20T17:02:18;23.20;36.70
75648;DHT22;64238;51.466;7.260;2022-11-20T17:04:44;23.20;36.80
75648;DHT22;64238;51.466;7.260;2022-11-20T17:07:09;23.10;36.90
75648;DHT22;64238;51.466;7.260;2022-11-20T17:12:03;23.20;36.90
75648;DHT22;64238;51.466;7.260;2022-11-20T17:14:29;23.10;36.80
75648;DHT22;64238;51.466;7.260;2022-11-20T17:16:54;23.10;36.80
75648;DHT22;64238;51.466;7.260;2022-11-20T17:19:20;23.10;36.90
75648;DHT22;64238;51.466;7.260;2022-11-20T17:21:46;23.10;36.90
75648;DHT22;64238;51.466;7.260;2022-11-20T17:24:12;23.10;36.90
75648;DHT22;64238;51.466;7.260;2022-11-20T17:26:39;23.10;36.80
75648;DHT22;64238;51.466;7.260;2022-11-20T17:29:08;23.10;36.90
75648;DHT22;64238;51.466;7.260;2022-11-20T17:31:35;23.20;36.90
75648;DHT22;64238;51.466;7.260;2022-11-20T17:34:04;23.20;37.00